createdAt,value
2019-03-11T00:40:17.955Z,15.47
2019-03-11T00:43:08.108Z,10.20
2019-03-11T00:45:49.598Z,7.83
2019-03-11T00:48:32.831Z,13.83
2019-03-11T00:51:14.790Z,11.13
2019-03-11T00:56:45.356Z,10.23
2019-03-11T00:59:28.658Z,10.00
2019-03-11T01:02:13.450Z,8.53
2019-03-11T01:04:55.735Z,10.43
2019-03-11T01:07:38.095Z,10.67
2019-03-11T01:10:20.283Z,9.10
2019-03-11T01:15:53.746Z,8.37
2019-03-11T01:18:35.705Z,8.90
2019-03-11T01:21:20.877Z,9.43
2019-03-11T01:24:02.953Z,14.77
2019-03-11T01:26:44.940Z,12.43
2019-03-11T01:29:28.510Z,15.63
2019-03-11T01:32:10.649Z,11.17
2019-03-11T01:34:52.901Z,13.07
2019-03-11T01:37:34.545Z,8.17
2019-03-11T01:40:18.525Z,10.23
2019-03-11T01:43:00.535Z,15.27
2019-03-11T01:45:45.537Z,13.33
2019-03-11T01:48:27.515Z,10.37
2019-03-11T01:51:09.480Z,15.60
2019-03-11T01:53:51.369Z,9.43
2019-03-11T01:56:35.033Z,14.07
2019-03-11T01:59:19.937Z,11.93
2019-03-11T02:02:03.268Z,14.27
2019-03-11T02:04:48.755Z,7.70
2019-03-11T02:07:41.884Z,11.77
2019-03-11T02:10:27.104Z,9.80
2019-03-11T02:13:10.086Z,14.07
2019-03-11T02:15:51.899Z,10.73
2019-03-11T02:18:35.798Z,13.53
2019-03-11T02:21:18.529Z,11.37
2019-03-11T02:24:02.969Z,13.17
2019-03-11T02:26:47.368Z,11.67
2019-03-11T02:29:29.139Z,16.73
2019-03-11T02:32:13.069Z,16.10
2019-03-11T02:34:57.094Z,9.73
2019-03-11T02:37:38.660Z,12.87
2019-03-11T02:40:23.545Z,9.77
2019-03-11T02:43:08.880Z,10.27
2019-03-11T02:45:55.162Z,13.30
2019-03-11T02:48:40.433Z,13.03
2019-03-11T02:51:22.657Z,14.90
2019-03-11T02:54:07.024Z,11.83
2019-03-11T02:56:51.526Z,11.47
2019-03-11T02:59:33.040Z,9.10
2019-03-11T03:02:42.688Z,12.60
2019-03-11T03:08:55.833Z,17.20
2019-03-11T03:11:45.191Z,13.73
2019-03-11T03:14:34.262Z,8.90
2019-03-11T03:17:26.381Z,13.13
2019-03-11T03:20:36.130Z,9.20
2019-03-11T03:23:25.220Z,17.30
2019-03-11T03:26:16.929Z,12.00
2019-03-11T03:29:27.021Z,13.13
2019-03-11T03:32:02.402Z,13.27
2019-03-11T03:34:58.898Z,15.17
2019-03-11T03:37:35.317Z,14.17
2019-03-11T03:40:08.658Z,17.57
2019-03-11T03:43:00.514Z,11.27
2019-03-11T03:49:25.124Z,7.80
2019-03-11T03:52:14.313Z,8.60
2019-03-11T03:55:03.428Z,11.60
2019-03-11T03:57:45.324Z,7.30
2019-03-11T04:00:27.395Z,9.37
2019-03-11T04:03:09.640Z,9.80
2019-03-11T04:05:51.838Z,12.07
2019-03-11T04:08:33.920Z,10.73
2019-03-11T04:11:16.019Z,14.80
2019-03-11T04:13:57.985Z,12.97
2019-03-11T04:16:43.281Z,11.77
2019-03-11T04:19:24.724Z,11.67
2019-03-11T04:22:06.628Z,10.27
2019-03-11T04:24:49.152Z,11.17
2019-03-11T04:27:31.175Z,13.27
2019-03-11T04:30:12.843Z,11.53
2019-03-11T04:32:55.308Z,7.53
2019-03-11T04:35:37.745Z,9.60
2019-03-11T04:38:19.617Z,9.00
2019-03-11T04:41:05.306Z,11.20
2019-03-11T04:44:06.935Z,10.13
2019-03-11T04:46:49.411Z,11.60
2019-03-11T04:49:31.406Z,7.63
2019-03-11T04:52:13.662Z,11.23
2019-03-11T04:54:43.580Z,10.83
2019-03-11T04:57:38.879Z,8.87
2019-03-11T05:00:44.445Z,10.80
2019-03-11T05:03:40.885Z,11.53
2019-03-11T05:06:29.957Z,8.40
2019-03-11T05:09:38.145Z,9.77
2019-03-11T05:12:27.306Z,11.63
2019-03-11T05:15:16.328Z,7.70
2019-03-11T05:18:05.452Z,11.87
2019-03-11T05:20:54.528Z,5.67
2019-03-11T05:23:43.620Z,7.50
2019-03-11T05:26:32.552Z,6.70
2019-03-11T05:29:21.775Z,7.87
2019-03-11T05:32:10.978Z,7.87
2019-03-11T05:34:59.962Z,7.63
2019-03-11T05:37:49.125Z,3.10
2019-03-11T05:40:38.541Z,6.23
2019-03-11T05:43:27.781Z,5.60
2019-03-11T05:46:11.746Z,3.17
2019-03-11T05:48:52.656Z,3.70
2019-03-11T05:51:34.640Z,2.73
2019-03-11T05:54:16.383Z,2.50
2019-03-11T05:56:59.031Z,3.23
2019-03-11T05:59:41.321Z,2.53
2019-03-11T06:02:23.675Z,2.00
2019-03-11T06:05:05.478Z,4.07
2019-03-11T06:07:47.564Z,3.03
2019-03-11T06:10:29.669Z,3.17
2019-03-11T06:13:11.832Z,2.40
2019-03-11T06:15:53.252Z,3.50
2019-03-11T06:18:39.634Z,3.03
2019-03-11T06:21:46.615Z,1.80
2019-03-11T06:24:30.452Z,4.03
2019-03-11T06:27:11.984Z,2.23
2019-03-11T06:29:53.307Z,1.90
2019-03-11T06:32:35.065Z,5.53
2019-03-11T06:35:17.110Z,1.63
2019-03-11T06:37:59.168Z,3.50
2019-03-11T06:40:40.486Z,2.40
2019-03-11T06:43:22.002Z,2.97
2019-03-11T06:46:04.169Z,3.90
2019-03-11T06:48:46.080Z,1.83
2019-03-11T06:51:27.773Z,1.90
2019-03-11T06:54:10.208Z,1.60
2019-03-11T06:56:52.520Z,3.47
2019-03-11T06:59:37.463Z,1.67
2019-03-11T07:02:19.701Z,1.20
2019-03-11T07:05:02.587Z,1.13
2019-03-11T07:07:44.998Z,1.87
2019-03-11T07:10:27.292Z,1.23
2019-03-11T07:13:09.276Z,1.53
2019-03-11T07:15:50.977Z,1.30
2019-03-11T07:18:32.451Z,3.23
2019-03-11T07:21:21.614Z,14.70
2019-03-11T07:23:51.981Z,7.00
2019-03-11T07:26:41.306Z,20.73
2019-03-11T07:30:03.738Z,3.77
2019-03-11T07:33:01.380Z,4.37
2019-03-11T07:35:50.384Z,3.80
2019-03-11T07:38:39.378Z,10.13
2019-03-11T07:41:20.893Z,11.57
2019-03-11T07:44:02.249Z,2.00
2019-03-11T07:46:45.612Z,4.87
2019-03-11T07:49:30.543Z,1.70
2019-03-11T07:52:11.907Z,6.83
2019-03-11T08:00:54.289Z,7.00
2019-03-11T08:03:37.813Z,5.00
2019-03-11T08:06:19.897Z,4.77
2019-03-11T08:09:02.062Z,8.50
2019-03-11T08:11:31.825Z,3.93
2019-03-11T08:14:20.905Z,4.40
2019-03-11T08:17:09.951Z,9.17
2019-03-11T08:23:13.466Z,3.77
2019-03-11T08:26:02.417Z,6.20
2019-03-11T08:28:51.312Z,3.50
2019-03-11T08:31:40.248Z,3.83
2019-03-11T08:34:29.390Z,4.90
2019-03-11T08:36:59.102Z,3.70
2019-03-11T08:39:29.418Z,3.73
2019-03-11T08:41:59.643Z,4.00
2019-03-11T08:44:48.558Z,2.43
2019-03-11T08:47:37.463Z,5.77
2019-03-11T08:50:26.473Z,5.73
2019-03-11T08:53:15.487Z,5.17
2019-03-11T08:56:04.678Z,4.13
2019-03-11T08:58:54.083Z,4.83
2019-03-11T09:01:43.039Z,3.57
2019-03-11T09:04:31.944Z,2.83
2019-03-11T09:07:20.878Z,4.47
2019-03-11T09:09:50.574Z,6.10
2019-03-11T09:12:40.080Z,3.80
2019-03-11T09:15:29.267Z,3.27
2019-03-11T09:18:18.750Z,4.57
2019-03-11T09:21:07.682Z,4.70
2019-03-11T09:23:56.582Z,5.40
2019-03-11T09:26:45.497Z,9.73
2019-03-11T09:29:15.206Z,5.83
2019-03-11T09:31:44.938Z,6.60
2019-03-11T09:34:15.019Z,4.97
2019-03-11T09:36:44.811Z,5.30
2019-03-11T09:39:14.503Z,3.93
2019-03-11T09:41:44.252Z,4.90
2019-03-11T09:44:33.647Z,5.43
2019-03-11T09:47:22.922Z,7.70
2019-03-11T09:50:12.305Z,6.90
2019-03-11T09:56:09.808Z,2.60
2019-03-11T09:59:19.203Z,6.57
2019-03-11T10:02:07.680Z,4.30
2019-03-11T10:04:56.158Z,6.27
2019-03-11T10:07:45.176Z,5.37
2019-03-11T10:10:34.839Z,4.87
2019-03-11T10:13:23.779Z,3.57
2019-03-11T10:16:12.787Z,2.30
2019-03-11T10:19:01.683Z,2.13
2019-03-11T10:21:31.735Z,2.20
2019-03-11T10:24:21.143Z,3.37
2019-03-11T10:27:10.322Z,4.40
2019-03-11T10:29:40.612Z,2.07
2019-03-11T10:32:29.859Z,2.33
2019-03-11T10:35:31.529Z,5.57
2019-03-11T10:38:28.868Z,5.87
2019-03-11T10:41:10.264Z,3.60
2019-03-11T10:43:52.326Z,2.93
2019-03-11T10:46:33.643Z,2.77
2019-03-11T10:49:15.138Z,3.57
2019-03-11T10:51:56.755Z,6.33
2019-03-11T10:54:38.858Z,4.40
2019-03-11T10:57:20.826Z,6.03
2019-03-11T10:59:50.895Z,4.83
2019-03-11T11:02:39.894Z,3.90
2019-03-11T11:05:28.862Z,2.27
2019-03-11T11:08:17.860Z,2.87
2019-03-11T11:11:06.798Z,4.23
2019-03-11T11:13:55.944Z,3.77
2019-03-11T11:16:46.543Z,6.40
2019-03-11T11:20:02.755Z,7.50
2019-03-11T11:23:05.075Z,8.37
2019-03-11T11:25:54.260Z,3.67
2019-03-11T11:28:43.154Z,2.90
2019-03-11T11:31:32.343Z,10.17
2019-03-11T11:37:29.481Z,2.70
2019-03-11T11:40:19.796Z,4.70
2019-03-11T11:43:04.658Z,3.03
2019-03-11T11:45:46.059Z,4.87
2019-03-11T11:48:27.648Z,2.83
2019-03-11T11:51:09.287Z,3.23
2019-03-11T11:53:51.534Z,3.03
2019-03-11T11:56:33.630Z,4.50
2019-03-11T11:59:15.087Z,2.17
2019-03-11T12:01:44.820Z,2.80
2019-03-11T12:04:33.714Z,3.67
2019-03-11T12:07:23.014Z,3.00
2019-03-11T12:10:13.146Z,4.67
2019-03-11T12:13:02.412Z,5.17
2019-03-11T12:15:51.549Z,4.20
2019-03-11T12:18:40.450Z,3.97
2019-03-11T12:21:29.371Z,2.60
2019-03-11T12:24:18.254Z,3.73
2019-03-11T12:30:02.625Z,3.33
2019-03-11T12:32:51.692Z,3.93
2019-03-11T12:35:22.551Z,4.63
2019-03-11T12:37:52.390Z,8.10
2019-03-11T12:40:41.394Z,3.73
2019-03-11T12:43:11.170Z,4.03
2019-03-11T12:46:00.166Z,4.40
2019-03-11T12:51:57.321Z,2.13
2019-03-11T12:54:46.460Z,5.30
2019-03-11T12:57:35.463Z,3.47
2019-03-11T13:00:45.027Z,6.47
2019-03-11T13:03:34.200Z,4.87
2019-03-11T13:06:23.459Z,3.93
2019-03-11T13:09:12.357Z,8.23
2019-03-11T13:15:15.615Z,5.03
2019-03-11T13:18:23.973Z,3.37
2019-03-11T13:20:53.783Z,3.17
2019-03-11T13:23:42.706Z,5.03
2019-03-11T13:26:31.874Z,3.77
2019-03-11T13:29:21.227Z,2.47
2019-03-11T13:32:10.470Z,4.60
2019-03-11T13:34:59.630Z,2.10
2019-03-11T13:40:37.496Z,4.73
2019-03-11T13:43:26.486Z,3.10
2019-03-11T13:45:56.400Z,3.40
2019-03-11T13:48:26.172Z,4.57
2019-03-11T13:51:15.578Z,2.43
2019-03-11T13:53:45.462Z,4.47
2019-03-11T13:56:34.439Z,4.70
2019-03-11T13:59:23.431Z,3.70
2019-03-11T14:02:12.755Z,4.33
2019-03-11T14:05:01.688Z,4.77
2019-03-11T14:07:51.081Z,4.77
2019-03-11T14:10:40.568Z,2.43
2019-03-11T14:13:29.500Z,3.90
2019-03-11T14:19:26.387Z,3.30
2019-03-11T14:28:37.326Z,3.17
2019-03-11T14:31:26.222Z,4.27
2019-03-11T14:33:56.177Z,6.90
2019-03-11T14:36:38.254Z,3.77
2019-03-11T14:39:20.459Z,4.37
2019-03-11T14:42:02.408Z,3.93
2019-03-11T14:44:44.598Z,5.80
2019-03-11T14:47:26.017Z,9.27
2019-03-11T14:50:07.272Z,5.40
2019-03-11T14:52:48.727Z,3.63
2019-03-11T14:55:30.516Z,4.27
2019-03-11T14:58:12.578Z,5.07
2019-03-11T15:00:54.603Z,3.77
2019-03-11T15:03:36.207Z,4.07
2019-03-11T15:06:18.391Z,3.73
2019-03-11T15:09:00.346Z,4.53
2019-03-11T15:11:42.140Z,6.10
2019-03-11T15:14:23.434Z,4.83
2019-03-11T15:17:05.435Z,4.33
2019-03-11T15:19:47.171Z,7.30
2019-03-11T15:22:29.351Z,4.57
2019-03-11T15:25:11.305Z,4.43
2019-03-11T15:27:41.541Z,4.37
2019-03-11T15:30:13.554Z,4.97
2019-03-11T15:32:43.334Z,5.07
2019-03-11T15:35:31.781Z,5.53
2019-03-11T15:38:01.802Z,6.87
2019-03-11T15:40:50.690Z,6.10
2019-03-11T15:43:20.566Z,4.73
2019-03-11T15:46:09.462Z,4.80
2019-03-11T15:48:58.409Z,4.73
2019-03-11T15:51:47.810Z,6.87
2019-03-11T15:54:37.059Z,5.53
2019-03-11T16:00:34.022Z,6.27
2019-03-11T16:03:23.204Z,6.97
2019-03-11T16:06:12.161Z,6.00
2019-03-11T16:08:43.232Z,7.63
2019-03-11T16:11:13.067Z,6.00
2019-03-11T16:14:02.574Z,6.90
2019-03-11T16:16:51.595Z,7.80
2019-03-11T16:22:54.391Z,4.60
2019-03-11T16:25:43.370Z,6.70
2019-03-11T16:28:32.570Z,5.00
2019-03-11T16:31:14.811Z,5.90
2019-03-11T16:33:44.774Z,5.63
2019-03-11T16:36:34.179Z,5.57
2019-03-11T16:42:36.476Z,8.67
2019-03-11T16:45:25.434Z,7.63
2019-03-11T16:48:14.443Z,5.83
2019-03-11T16:54:11.436Z,4.30
2019-03-11T16:57:00.391Z,3.87
2019-03-11T16:59:49.543Z,7.00
2019-03-11T17:02:38.796Z,5.13
2019-03-11T17:05:28.083Z,5.37
2019-03-11T17:08:17.084Z,6.47
2019-03-11T17:14:14.066Z,7.37
2019-03-11T17:17:03.260Z,4.83
2019-03-11T17:23:00.426Z,6.77
2019-03-11T17:25:49.432Z,4.30
2019-03-11T17:31:45.479Z,7.03
2019-03-11T17:34:27.382Z,4.23
2019-03-11T17:37:08.941Z,8.70
2019-03-11T17:39:39.561Z,20.67
2019-03-11T17:42:29.388Z,10.00
2019-03-11T17:45:18.751Z,9.70
2019-03-11T17:51:22.547Z,7.07
2019-03-11T17:53:53.105Z,5.57
2019-03-11T17:56:42.013Z,5.63
2019-03-11T17:59:31.015Z,25.23
2019-03-11T18:02:20.046Z,8.47
2019-03-11T18:05:10.004Z,7.53
2019-03-11T18:08:02.934Z,6.40
2019-03-11T18:14:24.723Z,7.43
2019-03-11T18:17:16.069Z,4.73
2019-03-11T18:20:06.534Z,5.03
2019-03-11T18:22:59.799Z,5.90
2019-03-11T18:25:49.404Z,7.43
2019-03-11T18:28:38.421Z,5.67
2019-03-11T18:31:08.376Z,6.77
2019-03-11T18:33:57.770Z,7.03
2019-03-11T18:36:46.662Z,6.47
2019-03-11T18:39:19.056Z,5.97
2019-03-11T18:42:09.898Z,7.97
2019-03-11T18:44:39.745Z,6.10
2019-03-11T18:47:09.622Z,6.10
2019-03-11T18:49:58.142Z,7.20
2019-03-11T18:52:47.095Z,7.07
2019-03-11T18:55:36.979Z,8.73
2019-03-11T18:58:26.017Z,7.73
2019-03-11T19:01:20.373Z,5.83
2019-03-11T19:03:52.475Z,5.73
2019-03-11T19:06:42.435Z,7.40
2019-03-11T19:09:14.148Z,8.30
2019-03-11T19:12:03.290Z,7.53
2019-03-11T19:14:52.564Z,8.57
2019-03-11T19:17:41.844Z,8.33
2019-03-11T19:20:31.078Z,5.27
2019-03-11T19:23:13.002Z,5.93
2019-03-11T19:25:54.939Z,5.30
2019-03-11T19:28:37.149Z,6.13
2019-03-11T19:31:06.992Z,7.20
2019-03-11T19:33:56.090Z,6.67
2019-03-11T19:36:25.923Z,7.37
2019-03-11T19:39:17.724Z,9.40
2019-03-11T19:42:06.702Z,7.93
2019-03-11T19:44:37.326Z,5.10
2019-03-11T19:47:26.399Z,7.17
2019-03-11T19:50:15.894Z,7.13
2019-03-11T19:53:05.088Z,6.53
2019-03-11T19:55:54.140Z,5.73
2019-03-11T19:58:43.811Z,6.37
2019-03-11T20:01:32.809Z,6.37
2019-03-11T20:04:21.838Z,5.13
2019-03-11T20:07:10.836Z,6.20
2019-03-11T20:10:00.079Z,5.27
2019-03-11T20:12:49.189Z,4.07
2019-03-11T20:15:38.389Z,7.17
2019-03-11T20:18:20.618Z,6.77
2019-03-11T20:21:02.517Z,3.67
2019-03-11T20:23:44.729Z,4.80
2019-03-11T20:26:26.999Z,6.10
2019-03-11T20:28:57.443Z,5.70
2019-03-11T20:31:47.001Z,6.07
2019-03-11T20:34:36.586Z,14.07
2019-03-11T20:37:25.748Z,4.97
2019-03-11T20:40:15.163Z,7.53
2019-03-11T20:43:04.899Z,5.03
2019-03-11T20:46:13.610Z,6.77
2019-03-11T20:52:18.710Z,6.30
2019-03-11T20:55:16.163Z,6.73
2019-03-11T20:58:24.983Z,4.70
2019-03-11T21:00:56.310Z,4.93
2019-03-11T21:07:17.773Z,6.30
2019-03-11T21:13:39.878Z,6.73
2019-03-11T21:16:17.011Z,4.70
2019-03-11T21:19:06.281Z,5.33
2019-03-11T21:21:55.661Z,4.70
2019-03-11T21:27:53.275Z,9.73
2019-03-11T21:30:42.326Z,5.87
2019-03-11T21:33:12.091Z,6.07
2019-03-11T21:36:01.147Z,7.83
2019-03-11T21:38:50.209Z,6.50
2019-03-11T21:41:39.923Z,6.33
2019-03-11T21:44:29.170Z,6.00
2019-03-11T21:47:18.115Z,7.60
2019-03-11T21:50:08.156Z,3.93
2019-03-11T21:52:57.708Z,6.77
2019-03-11T21:55:46.731Z,5.13
2019-03-11T21:58:35.861Z,5.87
2019-03-11T22:01:25.155Z,5.17
2019-03-11T22:03:55.111Z,4.87
2019-03-11T22:06:37.411Z,6.27
2019-03-11T22:09:19.680Z,8.40
2019-03-11T22:15:34.651Z,5.57
2019-03-11T22:18:16.843Z,4.63
2019-03-11T22:20:58.533Z,7.60
2019-03-11T22:23:42.133Z,7.40
2019-03-11T22:26:23.610Z,4.10
2019-03-11T22:29:05.936Z,5.50
2019-03-11T22:31:48.136Z,4.87
2019-03-11T22:40:30.615Z,6.27
2019-03-11T22:43:15.564Z,5.43
2019-03-11T22:45:57.798Z,5.47
2019-03-11T22:48:28.087Z,6.93
2019-03-11T22:50:57.771Z,5.60
2019-03-11T22:53:46.723Z,6.93
2019-03-11T22:56:35.968Z,4.83
2019-03-11T22:59:25.146Z,7.73
2019-03-11T23:02:07.346Z,5.47
2019-03-11T23:04:49.583Z,8.33
2019-03-11T23:07:31.579Z,4.00
2019-03-11T23:10:13.648Z,6.07
2019-03-11T23:12:55.367Z,3.83
2019-03-11T23:15:37.160Z,5.93
2019-03-11T23:18:18.519Z,4.13
2019-03-11T23:21:00.804Z,6.27
2019-03-11T23:23:42.037Z,3.93
2019-03-11T23:26:24.073Z,4.90
2019-03-11T23:29:06.227Z,5.33
2019-03-11T23:31:47.911Z,6.87
2019-03-11T23:34:30.044Z,6.47
2019-03-11T23:37:12.889Z,5.70
2019-03-11T23:39:42.659Z,5.23
2019-03-11T23:42:12.435Z,6.23
2019-03-11T23:44:42.503Z,5.23
2019-03-11T23:47:12.530Z,4.33
2019-03-11T23:49:42.317Z,5.90
2019-03-11T23:52:31.206Z,5.60
2019-03-11T23:55:13.523Z,4.30
2019-03-11T23:57:55.208Z,4.63
